Main page
METAR-TAF:

METAR-TAF

Airports :

Curaçao International Airport

Curaçao, Netherlands Antilles

latitude: 12-12N, longitude: 068-58W, elevation: 9 m

Current weather observation

The report was made 29 minutes ago, at 13:00 UTC
Wind 16 kt from the East
Temperature 28°C
Humidity 70%
Pressure 1015 hPa
Visibility 10 km or more
Scattered clouds at a height of 1900 ft

METAR: TNCC 201300Z 10016KT 9999 SCT019 28/22 Q1015 NOSIG

Time: 09:29 (13:29 UTC)

Forecast

The report was made 3 hours and 29 minutes ago, at 10:00 UTC
Forecast valid from 20 at 12 UTC to 21 at 12 UTC
Wind 15 kt from the East
Visibility 10 km or more
Scattered clouds at a height of 2000 ft
Probability 30% :
Temporary
from 20 at 12 UTC to 20 at 14 UTC
Broken clouds at a height of 1500 ft

TAF: TNCC 201000Z 2012/2112 10015KT 9999 SCT020 PROB30 TEMPO 2012/2014 BKN015

Weather observations and forecasts of more than 4000 airports (METAR and TAF reports).

The available stations are represented by yellow and red dots on the map.

Hover mouse over dot to see the name of the station.

Then click to see weather observations and forecasts.

To change the map : click on the green buttons with a black cross to zoom in, on the green button with a dash to zoom out, or on the green arrows for adjacent maps.


METAR-TAF: